createdAt,value
2022-11-22T17:56:11.521Z,9.05
2022-11-22T17:57:10.311Z,8.95
2022-11-22T17:58:10.255Z,8.92
2022-11-22T17:59:10.201Z,8.95
2022-11-22T18:00:10.151Z,8.97
2022-11-22T18:01:10.101Z,8.86
2022-11-22T18:02:10.047Z,8.97
2022-11-22T18:03:10.043Z,8.84
2022-11-22T18:04:09.949Z,8.89
2022-11-22T18:05:09.899Z,8.95
2022-11-22T18:06:09.856Z,8.96
2022-11-22T18:07:09.868Z,8.92
2022-11-22T18:08:09.757Z,8.92
2022-11-22T18:09:09.709Z,8.93
2022-11-22T18:10:09.659Z,8.93
2022-11-22T18:11:09.611Z,8.90
2022-11-22T18:12:09.583Z,8.95
2022-11-22T18:13:24.897Z,8.92
2022-11-22T18:14:09.468Z,8.96
2022-11-22T18:15:09.426Z,8.95
2022-11-22T18:16:09.372Z,8.99
2022-11-22T18:17:09.330Z,8.87
2022-11-22T18:18:11.324Z,8.79
2022-11-22T18:19:09.239Z,8.84
2022-11-22T18:20:09.187Z,8.92
2022-11-22T18:21:14.117Z,8.92
2022-11-22T18:22:09.093Z,8.89
2022-11-22T18:23:09.049Z,8.74
2022-11-22T18:24:09.000Z,8.74
2022-11-22T18:25:08.955Z,8.86
2022-11-22T18:26:38.903Z,8.79
2022-11-22T18:27:08.863Z,8.81
2022-11-22T18:28:08.938Z,8.77
2022-11-22T18:29:39.022Z,8.79
2022-11-22T18:30:08.720Z,8.77
2022-11-22T18:31:08.678Z,8.87
2022-11-22T18:32:08.633Z,8.74
2022-11-22T18:33:08.582Z,8.86
2022-11-22T18:34:08.535Z,8.74
2022-11-22T18:35:08.492Z,8.86
2022-11-22T18:36:49.422Z,8.82
2022-11-22T18:37:08.400Z,8.79
2022-11-22T18:38:08.351Z,8.90
2022-11-22T18:39:08.306Z,8.89
2022-11-22T18:40:08.259Z,8.84
2022-11-22T18:41:08.214Z,8.81
2022-11-22T18:42:08.167Z,8.90
2022-11-22T18:43:08.127Z,8.95
2022-11-22T18:44:09.993Z,8.86
2022-11-22T18:45:08.036Z,8.95
2022-11-22T18:46:07.993Z,8.87
2022-11-22T18:47:07.937Z,8.86
2022-11-22T18:48:07.897Z,8.82
2022-11-22T18:49:07.844Z,8.87
2022-11-22T18:50:12.356Z,8.90
2022-11-22T18:51:07.752Z,8.87
2022-11-22T18:52:09.700Z,8.90
2022-11-22T18:53:07.663Z,8.82
2022-11-22T18:54:07.611Z,8.89
2022-11-22T18:55:07.567Z,8.78
2022-11-22T18:56:07.523Z,8.82
2022-11-22T18:57:07.481Z,8.90
2022-11-22T18:58:07.431Z,8.89
2022-11-22T18:59:07.383Z,8.87
2022-11-22T19:00:07.459Z,8.87
2022-11-22T19:01:07.323Z,8.89
2022-11-22T19:02:07.251Z,8.90
2022-11-22T19:03:07.205Z,8.82
2022-11-22T19:04:07.155Z,8.86
2022-11-22T19:05:07.106Z,8.87
2022-11-22T19:06:07.059Z,8.86
2022-11-22T19:07:07.051Z,8.87
2022-11-22T19:08:06.968Z,8.86
2022-11-22T19:09:06.939Z,8.79
2022-11-22T19:10:06.880Z,8.92
2022-11-22T19:11:06.832Z,8.82
2022-11-22T19:12:06.785Z,8.87
2022-11-22T19:13:06.738Z,8.81
2022-11-22T19:14:06.691Z,8.89
2022-11-22T19:15:06.652Z,8.74
2022-11-22T19:16:06.731Z,8.77
2022-11-22T19:17:06.557Z,8.77
2022-11-22T19:18:06.509Z,8.78
2022-11-22T19:19:06.466Z,8.77
2022-11-22T19:20:06.731Z,8.78
2022-11-22T19:21:06.370Z,8.82
2022-11-22T19:22:06.324Z,8.77
2022-11-22T19:23:06.278Z,8.78
2022-11-22T19:24:06.231Z,8.77
2022-11-22T19:25:06.184Z,8.81
2022-11-22T19:26:06.139Z,8.81
2022-11-22T19:27:06.092Z,8.77
2022-11-22T19:28:06.047Z,8.81
2022-11-22T19:29:06.007Z,8.79
2022-11-22T19:30:06.029Z,8.77
2022-11-22T19:31:05.910Z,8.79
2022-11-22T19:32:05.980Z,8.79
2022-11-22T19:33:05.816Z,8.71
2022-11-22T19:34:05.770Z,8.74
2022-11-22T19:35:05.724Z,8.81
2022-11-22T19:36:05.679Z,8.84
2022-11-22T19:37:05.632Z,8.78
2022-11-22T19:38:05.588Z,8.74
2022-11-22T19:39:05.544Z,8.79
2022-11-22T19:40:05.491Z,8.84
2022-11-22T19:41:05.448Z,8.78
2022-11-22T19:42:05.400Z,8.72
2022-11-22T19:43:05.355Z,8.77
2022-11-22T19:44:05.308Z,8.77
2022-11-22T19:45:05.263Z,8.82
2022-11-22T19:46:05.215Z,8.74
2022-11-22T19:47:05.176Z,8.86
2022-11-22T19:48:05.239Z,8.79
2022-11-22T19:49:05.080Z,8.82
2022-11-22T19:50:05.037Z,8.77
2022-11-22T19:51:04.986Z,8.75
2022-11-22T19:52:04.938Z,8.87
2022-11-22T19:53:04.895Z,8.75
2022-11-22T19:54:04.845Z,8.86
2022-11-22T19:55:04.801Z,8.78
2022-11-22T19:56:04.754Z,8.74
2022-11-22T19:57:04.706Z,8.87
2022-11-22T19:58:04.660Z,8.84
2022-11-22T19:59:04.617Z,8.82
2022-11-22T20:00:04.575Z,8.82
2022-11-22T20:01:04.590Z,8.75
2022-11-22T20:02:04.482Z,8.72
2022-11-22T20:03:04.433Z,8.74
2022-11-22T20:04:04.542Z,8.77
2022-11-22T20:05:04.340Z,8.86
2022-11-22T20:06:04.291Z,8.77
2022-11-22T20:07:04.333Z,8.75
2022-11-22T20:08:04.213Z,8.84
2022-11-22T20:09:04.159Z,8.74
2022-11-22T20:10:04.113Z,8.82
2022-11-22T20:11:04.062Z,8.86
2022-11-22T20:12:04.015Z,8.87
2022-11-22T20:13:07.918Z,8.77
2022-11-22T20:14:03.924Z,8.75
2022-11-22T20:15:03.875Z,8.82
2022-11-22T20:16:03.838Z,8.77
2022-11-22T20:17:03.785Z,8.89
2022-11-22T20:18:03.737Z,8.90
2022-11-22T20:19:03.693Z,8.82
2022-11-22T20:20:03.666Z,8.89
2022-11-22T20:21:03.600Z,8.90
2022-11-22T20:22:03.556Z,8.92
2022-11-22T20:23:03.507Z,8.92
2022-11-22T20:24:03.461Z,8.86
2022-11-22T20:25:03.420Z,8.82
2022-11-22T20:26:03.367Z,8.89
2022-11-22T20:27:03.323Z,8.93
2022-11-22T20:28:03.275Z,8.87
2022-11-22T20:29:03.234Z,8.92
2022-11-22T20:30:03.186Z,8.93
2022-11-22T20:31:03.139Z,8.97
2022-11-22T20:32:03.094Z,8.95
2022-11-22T20:33:03.045Z,8.96
2022-11-22T20:34:03.013Z,8.92
2022-11-22T20:35:02.968Z,8.97
2022-11-22T20:36:03.076Z,8.90
2022-11-22T20:37:02.901Z,8.92
2022-11-22T20:38:02.825Z,8.96
2022-11-22T20:39:06.963Z,8.96
2022-11-22T20:40:02.722Z,8.96
2022-11-22T20:41:02.677Z,8.97
2022-11-22T20:42:32.596Z,8.97
2022-11-22T20:43:02.585Z,8.96
2022-11-22T20:44:02.538Z,9.09
2022-11-22T20:45:02.493Z,9.00
2022-11-22T20:46:02.444Z,8.97
2022-11-22T20:47:02.400Z,9.03
2022-11-22T20:48:02.354Z,8.99
2022-11-22T20:49:02.509Z,9.08
2022-11-22T20:50:02.260Z,9.16
2022-11-22T20:51:02.215Z,9.11
2022-11-22T20:52:02.293Z,9.11
2022-11-22T20:53:02.121Z,9.18
2022-11-22T20:54:02.086Z,9.15
2022-11-22T20:55:05.380Z,9.08
2022-11-22T20:56:02.014Z,9.11
2022-11-22T20:57:01.939Z,9.05
2022-11-22T20:58:01.891Z,9.12
2022-11-22T20:59:01.850Z,9.18
2022-11-22T21:00:01.801Z,9.13
2022-11-22T21:01:01.886Z,9.18
2022-11-22T21:02:04.007Z,9.16
2022-11-22T21:03:01.664Z,9.16
2022-11-22T21:04:01.617Z,9.18
2022-11-22T21:05:01.575Z,9.19
2022-11-22T21:06:01.530Z,9.24
2022-11-22T21:07:01.478Z,9.24
2022-11-22T21:08:05.061Z,9.22
2022-11-22T21:09:01.392Z,9.26
2022-11-22T21:10:01.340Z,9.22
2022-11-22T21:11:01.294Z,9.24
2022-11-22T21:12:01.245Z,9.26
2022-11-22T21:13:01.221Z,9.21
2022-11-22T21:14:01.157Z,9.27
2022-11-22T21:15:01.112Z,9.26
2022-11-22T21:16:01.067Z,9.22
2022-11-22T21:17:16.315Z,9.27
2022-11-22T21:18:24.300Z,9.19
2022-11-22T21:19:00.928Z,9.29
2022-11-22T21:20:00.879Z,9.27
2022-11-22T21:21:00.835Z,9.31
2022-11-22T21:22:00.785Z,9.33
2022-11-22T21:23:00.744Z,9.37
2022-11-22T21:24:00.844Z,9.36
2022-11-22T21:25:00.653Z,9.33
2022-11-22T21:26:00.600Z,9.30
2022-11-22T21:27:00.557Z,9.37
2022-11-22T21:28:00.517Z,9.26
2022-11-22T21:29:00.477Z,9.26
2022-11-22T21:30:00.443Z,9.27
2022-11-22T21:31:00.388Z,9.24
2022-11-22T21:32:00.334Z,9.31
2022-11-22T21:33:00.278Z,9.29
2022-11-22T21:34:00.232Z,9.24
2022-11-22T21:35:00.188Z,9.26
2022-11-22T21:36:00.142Z,9.24
2022-11-22T21:37:00.094Z,9.26
2022-11-22T21:38:00.052Z,9.19
2022-11-22T21:39:00.010Z,9.24
2022-11-22T21:40:00.086Z,9.24
2022-11-22T21:41:23.881Z,9.19
2022-11-22T21:41:59.865Z,9.19
2022-11-22T21:42:59.820Z,9.22
2022-11-22T21:43:59.770Z,9.22
2022-11-22T21:44:59.729Z,9.22
2022-11-22T21:45:59.679Z,9.21
2022-11-22T21:46:59.640Z,9.18
2022-11-22T21:47:59.588Z,9.26
2022-11-22T21:48:59.544Z,9.24
2022-11-22T21:49:59.493Z,9.29
2022-11-22T21:50:59.452Z,9.22
2022-11-22T21:51:59.402Z,9.27
2022-11-22T21:52:59.380Z,9.29
2022-11-22T21:53:59.313Z,9.26
2022-11-22T21:54:59.264Z,9.22
2022-11-22T21:55:59.334Z,9.26
2022-11-22T21:57:02.759Z,9.31
2022-11-22T21:57:59.131Z,9.21
2022-11-22T21:58:59.082Z,9.19
2022-11-22T21:59:59.033Z,9.18
2022-11-22T22:00:59.044Z,9.19
2022-11-22T22:01:59.006Z,9.19
2022-11-22T22:02:58.897Z,9.24
2022-11-22T22:03:58.851Z,9.19
2022-11-22T22:04:58.806Z,9.26
2022-11-22T22:05:58.758Z,9.22
2022-11-22T22:06:58.709Z,9.21
2022-11-22T22:07:58.721Z,9.22
2022-11-22T22:08:58.620Z,9.22
2022-11-22T22:09:58.574Z,9.15
2022-11-22T22:10:58.526Z,9.22
2022-11-22T22:11:58.506Z,9.21
2022-11-22T22:12:58.432Z,9.19
2022-11-22T22:13:58.392Z,9.19
2022-11-22T22:14:58.341Z,9.26
2022-11-22T22:15:58.311Z,9.19
2022-11-22T22:16:58.248Z,9.24
2022-11-22T22:17:58.204Z,9.21
